sensor_id;sensor_type;location;lat;lon;timestamp;pressure;altitude;pressure_sealevel;temperature;humidity
52137;BME280;69622;49.570;10.986;2023-08-01T00:02:45;97340.94;;;17.00;100.00
52137;BME280;69622;49.570;10.986;2023-08-01T00:05:47;97331.88;;;17.03;100.00
52137;BME280;69622;49.570;10.986;2023-08-01T00:08:48;97335.16;;;17.05;100.00
52137;BME280;69622;49.570;10.986;2023-08-01T00:11:50;97336.78;;;17.06;100.00
52137;BME280;69622;49.570;10.986;2023-08-01T00:14:51;97335.41;;;17.10;100.00
52137;BME280;69622;49.570;10.986;2023-08-01T00:17:53;97343.38;;;17.02;100.00
52137;BME280;69622;49.570;10.986;2023-08-01T00:20:54;97332.34;;;16.92;100.00
52137;BME280;69622;49.570;10.986;2023-08-01T00:23:56;97342.19;;;16.90;100.00
52137;BME280;69622;49.570;10.986;2023-08-01T00:26:57;97337.59;;;16.92;100.00
52137;BME280;69622;49.570;10.986;2023-08-01T00:29:59;97345.91;;;16.95;100.00
52137;BME280;69622;49.570;10.986;2023-08-01T00:33:00;97337.13;;;17.03;100.00
52137;BME280;69622;49.570;10.986;2023-08-01T00:36:02;97327.78;;;17.00;100.00
52137;BME280;69622;49.570;10.986;2023-08-01T00:39:04;97329.97;;;16.97;100.00
52137;BME280;69622;49.570;10.986;2023-08-01T00:42:05;97324.66;;;17.05;100.00
52137;BME280;69622;49.570;10.986;2023-08-01T00:45:07;97319.47;;;16.97;100.00
52137;BME280;69622;49.570;10.986;2023-08-01T00:48:09;97311.34;;;17.06;100.00
52137;BME280;69622;49.570;10.986;2023-08-01T00:51:11;97306.72;;;17.09;100.00
52137;BME280;69622;49.570;10.986;2023-08-01T00:54:13;97305.44;;;17.04;100.00
52137;BME280;69622;49.570;10.986;2023-08-01T00:57:15;97295.75;;;16.90;100.00
52137;BME280;69622;49.570;10.986;2023-08-01T01:00:16;97284.88;;;16.93;100.00
52137;BME280;69622;49.570;10.986;2023-08-01T01:03:18;97286.34;;;16.96;100.00
52137;BME280;69622;49.570;10.986;2023-08-01T01:06:41;97274.19;;;16.95;100.00
52137;BME280;69622;49.570;10.986;2023-08-01T01:09:46;97277.38;;;16.90;100.00
52137;BME280;69622;49.570;10.986;2023-08-01T01:12:47;97276.09;;;16.86;100.00
52137;BME280;69622;49.570;10.986;2023-08-01T01:15:49;97267.06;;;16.89;100.00
52137;BME280;69622;49.570;10.986;2023-08-01T01:18:50;97262.78;;;16.88;100.00
52137;BME280;69622;49.570;10.986;2023-08-01T01:21:52;97257.06;;;16.69;100.00
52137;BME280;69622;49.570;10.986;2023-08-01T01:24:55;97251.56;;;16.79;100.00
52137;BME280;69622;49.570;10.986;2023-08-01T01:27:57;97231.19;;;16.81;100.00
52137;BME280;69622;49.570;10.986;2023-08-01T01:31:00;97241.63;;;16.74;100.00
52137;BME280;69622;49.570;10.986;2023-08-01T01:34:03;97226.06;;;16.73;100.00
52137;BME280;69622;49.570;10.986;2023-08-01T01:37:04;97228.56;;;16.81;100.00
52137;BME280;69622;49.570;10.986;2023-08-01T01:40:07;97216.63;;;16.79;100.00
52137;BME280;69622;49.570;10.986;2023-08-01T01:43:08;97216.31;;;16.59;100.00
52137;BME280;69622;49.570;10.986;2023-08-01T01:46:11;97206.19;;;16.70;100.00
52137;BME280;69622;49.570;10.986;2023-08-01T01:49:12;97203.13;;;16.67;100.00
52137;BME280;69622;49.570;10.986;2023-08-01T01:52:13;97206.03;;;16.72;100.00
52137;BME280;69622;49.570;10.986;2023-08-01T01:55:15;97197.03;;;16.66;100.00
52137;BME280;69622;49.570;10.986;2023-08-01T01:58:16;97191.47;;;16.69;100.00
52137;BME280;69622;49.570;10.986;2023-08-01T02:01:18;97186.50;;;16.74;100.00
52137;BME280;69622;49.570;10.986;2023-08-01T02:04:19;97180.41;;;16.59;100.00
52137;BME280;69622;49.570;10.986;2023-08-01T02:07:21;97172.44;;;16.67;100.00
52137;BME280;69622;49.570;10.986;2023-08-01T02:10:22;97156.59;;;16.61;100.00
52137;BME280;69622;49.570;10.986;2023-08-01T02:13:26;97150.44;;;16.54;100.00
52137;BME280;69622;49.570;10.986;2023-08-01T02:16:27;97146.38;;;16.66;100.00
52137;BME280;69622;49.570;10.986;2023-08-01T02:19:29;97139.50;;;16.50;100.00
52137;BME280;69622;49.570;10.986;2023-08-01T02:22:30;97132.97;;;16.61;100.00
52137;BME280;69622;49.570;10.986;2023-08-01T02:25:32;97116.81;;;16.42;100.00
52137;BME280;69622;49.570;10.986;2023-08-01T02:28:33;97113.69;;;16.54;100.00
52137;BME280;69622;49.570;10.986;2023-08-01T02:31:35;97109.38;;;16.61;100.00
52137;BME280;69622;49.570;10.986;2023-08-01T02:34:37;97116.16;;;16.40;100.00
52137;BME280;69622;49.570;10.986;2023-08-01T02:37:38;97116.25;;;16.47;100.00
52137;BME280;69622;49.570;10.986;2023-08-01T02:40:39;97111.53;;;16.57;100.00
52137;BME280;69622;49.570;10.986;2023-08-01T02:43:41;97110.09;;;16.69;100.00
52137;BME280;69622;49.570;10.986;2023-08-01T02:46:42;97107.00;;;16.51;100.00
52137;BME280;69622;49.570;10.986;2023-08-01T02:49:44;97113.88;;;16.52;100.00
52137;BME280;69622;49.570;10.986;2023-08-01T02:52:45;97113.81;;;16.60;100.00
52137;BME280;69622;49.570;10.986;2023-08-01T02:55:47;97108.19;;;16.48;100.00
52137;BME280;69622;49.570;10.986;2023-08-01T02:58:48;97107.00;;;16.51;100.00
52137;BME280;69622;49.570;10.986;2023-08-01T03:01:50;97107.00;;;16.51;100.00
52137;BME280;69622;49.570;10.986;2023-08-01T03:04:51;97114.63;;;16.46;100.00
52137;BME280;69622;49.570;10.986;2023-08-01T03:07:53;97114.06;;;16.51;100.00
52137;BME280;69622;49.570;10.986;2023-08-01T03:10:54;97116.97;;;16.41;100.00
52137;BME280;69622;49.570;10.986;2023-08-01T03:13:56;97113.44;;;16.48;100.00
52137;BME280;69622;49.570;10.986;2023-08-01T03:16:57;97117.44;;;16.59;100.00
52137;BME280;69622;49.570;10.986;2023-08-01T03:19:59;97109.81;;;16.50;100.00
52137;BME280;69622;49.570;10.986;2023-08-01T03:23:00;97104.13;;;16.31;100.00
52137;BME280;69622;49.570;10.986;2023-08-01T03:26:02;97092.28;;;16.50;100.00
52137;BME280;69622;49.570;10.986;2023-08-01T03:29:04;97091.28;;;16.36;100.00
52137;BME280;69622;49.570;10.986;2023-08-01T03:32:06;97092.28;;;16.35;100.00
52137;BME280;69622;49.570;10.986;2023-08-01T03:35:08;97087.84;;;16.36;100.00
52137;BME280;69622;49.570;10.986;2023-08-01T03:38:09;97083.41;;;16.51;100.00
52137;BME280;69622;49.570;10.986;2023-08-01T03:41:11;97078.91;;;16.30;100.00
52137;BME280;69622;49.570;10.986;2023-08-01T03:44:13;97060.91;;;16.27;100.00
52137;BME280;69622;49.570;10.986;2023-08-01T03:47:14;97057.09;;;16.30;100.00
52137;BME280;69622;49.570;10.986;2023-08-01T03:50:15;97047.03;;;16.48;100.00
52137;BME280;69622;49.570;10.986;2023-08-01T03:53:17;97040.72;;;16.42;100.00
52137;BME280;69622;49.570;10.986;2023-08-01T03:56:18;97035.09;;;16.45;100.00
52137;BME280;69622;49.570;10.986;2023-08-01T03:59:20;97036.38;;;16.35;100.00
52137;BME280;69622;49.570;10.986;2023-08-01T04:02:21;97036.47;;;16.41;100.00
52137;BME280;69622;49.570;10.986;2023-08-01T04:05:23;97033.50;;;16.15;100.00
52137;BME280;69622;49.570;10.986;2023-08-01T04:08:25;97033.59;;;16.22;100.00
52137;BME280;69622;49.570;10.986;2023-08-01T04:11:27;97019.28;;;16.24;100.00
52137;BME280;69622;49.570;10.986;2023-08-01T04:14:28;97018.03;;;16.35;100.00
52137;BME280;69622;49.570;10.986;2023-08-01T04:17:30;97014.75;;;16.47;100.00
52137;BME280;69622;49.570;10.986;2023-08-01T04:20:31;97020.75;;;16.41;100.00
52137;BME280;69622;49.570;10.986;2023-08-01T04:23:33;97013.41;;;16.37;100.00
52137;BME280;69622;49.570;10.986;2023-08-01T04:26:34;97008.09;;;16.30;100.00
52137;BME280;69622;49.570;10.986;2023-08-01T04:29:38;97007.81;;;16.25;100.00
52137;BME280;69622;49.570;10.986;2023-08-01T04:32:40;96999.94;;;16.25;100.00
52137;BME280;69622;49.570;10.986;2023-08-01T04:35:41;97002.44;;;16.48;100.00
52137;BME280;69622;49.570;10.986;2023-08-01T04:38:43;97001.47;;;16.34;100.00
52137;BME280;69622;49.570;10.986;2023-08-01T04:41:44;96993.44;;;16.21;100.00
52137;BME280;69622;49.570;10.986;2023-08-01T04:44:45;96992.22;;;16.38;100.00
52137;BME280;69622;49.570;10.986;2023-08-01T04:47:47;96993.81;;;16.18;100.00
52137;BME280;69622;49.570;10.986;2023-08-01T04:50:48;96995.44;;;16.19;100.00
52137;BME280;69622;49.570;10.986;2023-08-01T04:53:50;96994.78;;;16.32;100.00
52137;BME280;69622;49.570;10.986;2023-08-01T04:56:51;97000.78;;;16.26;100.00
52137;BME280;69622;49.570;10.986;2023-08-01T04:59:53;97000.66;;;16.34;100.00
52137;BME280;69622;49.570;10.986;2023-08-01T05:02:55;96997.97;;;16.27;100.00
52137;BME280;69622;49.570;10.986;2023-08-01T05:05:56;96995.94;;;16.44;100.00
52137;BME280;69622;49.570;10.986;2023-08-01T05:08:58;97005.72;;;16.35;100.00
52137;BME280;69622;49.570;10.986;2023-08-01T05:12:00;96998.63;;;16.51;100.00
52137;BME280;69622;49.570;10.986;2023-08-01T05:15:01;97007.06;;;16.46;100.00
52137;BME280;69622;49.570;10.986;2023-08-01T05:18:03;97007.22;;;16.74;100.00
52137;BME280;69622;49.570;10.986;2023-08-01T05:21:04;97018.25;;;16.55;100.00
52137;BME280;69622;49.570;10.986;2023-08-01T05:24:06;97018.25;;;16.55;100.00
52137;BME280;69622;49.570;10.986;2023-08-01T05:27:07;97010.31;;;16.48;100.00
52137;BME280;69622;49.570;10.986;2023-08-01T05:30:09;97015.22;;;16.36;100.00
52137;BME280;69622;49.570;10.986;2023-08-01T05:33:11;97017.19;;;16.49;100.00
52137;BME280;69622;49.570;10.986;2023-08-01T05:36:12;97013.78;;;16.34;100.00
52137;BME280;69622;49.570;10.986;2023-08-01T05:39:14;97018.38;;;16.46;100.00
52137;BME280;69622;49.570;10.986;2023-08-01T05:42:15;97017.13;;;16.42;100.00
52137;BME280;69622;49.570;10.986;2023-08-01T05:45:17;97011.13;;;16.48;100.00
52137;BME280;69622;49.570;10.986;2023-08-01T05:48:18;97016.31;;;16.42;100.00
52137;BME280;69622;49.570;10.986;2023-08-01T05:51:20;97015.75;;;16.46;100.00
52137;BME280;69622;49.570;10.986;2023-08-01T05:54:21;97014.03;;;16.39;100.00
52137;BME280;69622;49.570;10.986;2023-08-01T05:57:23;97020.28;;;16.38;100.00
52137;BME280;69622;49.570;10.986;2023-08-01T06:00:24;97018.66;;;16.37;100.00
52137;BME280;69622;49.570;10.986;2023-08-01T06:03:26;97020.38;;;16.44;100.00
52137;BME280;69622;49.570;10.986;2023-08-01T06:06:28;97016.53;;;16.62;100.00
52137;BME280;69622;49.570;10.986;2023-08-01T06:09:29;97011.75;;;16.51;100.00
52137;BME280;69622;49.570;10.986;2023-08-01T06:12:31;97020.81;;;16.48;100.00
52137;BME280;69622;49.570;10.986;2023-08-01T06:15:32;97014.94;;;16.46;100.00
52137;BME280;69622;49.570;10.986;2023-08-01T06:18:34;97012.00;;;16.56;100.00
52137;BME280;69622;49.570;10.986;2023-08-01T06:21:35;97015.00;;;16.53;100.00
52137;BME280;69622;49.570;10.986;2023-08-01T06:24:37;97020.88;;;16.55;100.00
52137;BME280;69622;49.570;10.986;2023-08-01T06:27:38;97028.72;;;16.69;100.00
52137;BME280;69622;49.570;10.986;2023-08-01T06:30:40;97029.66;;;16.62;100.00
52137;BME280;69622;49.570;10.986;2023-08-01T06:33:41;97038.06;;;16.57;100.00
52137;BME280;69622;49.570;10.986;2023-08-01T06:36:43;97048.09;;;16.54;100.00
52137;BME280;69622;49.570;10.986;2023-08-01T06:39:44;97041.66;;;16.71;100.00
52137;BME280;69622;49.570;10.986;2023-08-01T06:42:46;97043.03;;;16.67;100.00
52137;BME280;69622;49.570;10.986;2023-08-01T06:45:48;97047.56;;;16.73;100.00
52137;BME280;69622;49.570;10.986;2023-08-01T06:48:49;97042.94;;;16.75;100.00
52137;BME280;69622;49.570;10.986;2023-08-01T06:51:51;97034.44;;;16.58;100.00
52137;BME280;69622;49.570;10.986;2023-08-01T06:54:52;97041.50;;;16.58;100.00
52137;BME280;69622;49.570;10.986;2023-08-01T06:57:54;97039.56;;;16.66;100.00
52137;BME280;69622;49.570;10.986;2023-08-01T07:00:55;97043.84;;;16.67;100.00
52137;BME280;69622;49.570;10.986;2023-08-01T07:03:56;97039.03;;;16.71;100.00
52137;BME280;69622;49.570;10.986;2023-08-01T07:06:58;97042.84;;;16.54;100.00
52137;BME280;69622;49.570;10.986;2023-08-01T07:10:00;97043.97;;;16.44;100.00
52137;BME280;69622;49.570;10.986;2023-08-01T07:13:02;97043.47;;;16.56;100.00
52137;BME280;69622;49.570;10.986;2023-08-01T07:16:05;97027.25;;;16.45;100.00
52137;BME280;69622;49.570;10.986;2023-08-01T07:19:07;97034.44;;;16.58;100.00
52137;BME280;69622;49.570;10.986;2023-08-01T07:22:08;97021.31;;;16.73;100.00
52137;BME280;69622;49.570;10.986;2023-08-01T07:25:10;97017.72;;;16.59;100.00
52137;BME280;69622;49.570;10.986;2023-08-01T07:28:13;97011.72;;;16.65;100.00
52137;BME280;69622;49.570;10.986;2023-08-01T07:31:14;97014.53;;;16.64;100.00
52137;BME280;69622;49.570;10.986;2023-08-01T07:34:16;97032.97;;;16.70;100.00
52137;BME280;69622;49.570;10.986;2023-08-01T07:37:17;97030.22;;;16.57;100.00
52137;BME280;69622;49.570;10.986;2023-08-01T07:40:19;97023.28;;;16.71;100.00
52137;BME280;69622;49.570;10.986;2023-08-01T07:43:21;97020.78;;;16.63;100.00
52137;BME280;69622;49.570;10.986;2023-08-01T07:46:22;97020.84;;;16.69;100.00
52137;BME280;69622;49.570;10.986;2023-08-01T07:49:24;97009.75;;;16.67;100.00
52137;BME280;69622;49.570;10.986;2023-08-01T07:52:25;97015.44;;;16.71;100.00
52137;BME280;69622;49.570;10.986;2023-08-01T07:55:27;97014.19;;;16.88;100.00
52137;BME280;69622;49.570;10.986;2023-08-01T07:58:29;97015.88;;;16.74;100.00
52137;BME280;69622;49.570;10.986;2023-08-01T08:01:31;97006.75;;;16.56;100.00
52137;BME280;69622;49.570;10.986;2023-08-01T08:04:32;97000.59;;;16.63;100.00
52137;BME280;69622;49.570;10.986;2023-08-01T08:07:34;96993.09;;;16.60;100.00
52137;BME280;69622;49.570;10.986;2023-08-01T08:10:36;96992.28;;;16.74;100.00
52137;BME280;69622;49.570;10.986;2023-08-01T08:13:39;97014.25;;;16.73;100.00
52137;BME280;69622;49.570;10.986;2023-08-01T08:16:41;97012.00;;;16.70;100.00
52137;BME280;69622;49.570;10.986;2023-08-01T08:19:43;97022.06;;;16.52;100.00
52137;BME280;69622;49.570;10.986;2023-08-01T08:22:44;97036.31;;;16.64;100.00
52137;BME280;69622;49.570;10.986;2023-08-01T08:25:46;97043.19;;;16.80;100.00
52137;BME280;69622;49.570;10.986;2023-08-01T08:28:48;97040.34;;;16.96;100.00
52137;BME280;69622;49.570;10.986;2023-08-01T08:31:50;97040.75;;;16.79;100.00
52137;BME280;69622;49.570;10.986;2023-08-01T08:34:51;97038.28;;;16.92;100.00
52137;BME280;69622;49.570;10.986;2023-08-01T08:37:53;97028.78;;;16.91;100.00
52137;BME280;69622;49.570;10.986;2023-08-01T08:41:10;97023.16;;;16.58;100.00
52137;BME280;69622;49.570;10.986;2023-08-01T08:44:17;97010.72;;;16.66;100.00
52137;BME280;69622;49.570;10.986;2023-08-01T08:47:20;96953.66;;;16.54;100.00
52137;BME280;69622;49.570;10.986;2023-08-01T08:50:26;96932.84;;;16.31;100.00
52137;BME280;69622;49.570;10.986;2023-08-01T08:53:30;96918.53;;;16.55;100.00
52137;BME280;69622;49.570;10.986;2023-08-01T08:56:33;96903.19;;;16.52;100.00
52137;BME280;69622;49.570;10.986;2023-08-01T08:59:36;96908.56;;;16.43;100.00
52137;BME280;69622;49.570;10.986;2023-08-01T09:02:38;96957.69;;;16.35;100.00
52137;BME280;69622;49.570;10.986;2023-08-01T09:05:49;96985.88;;;16.47;100.00
52137;BME280;69622;49.570;10.986;2023-08-01T09:08:56;96993.53;;;16.64;100.00
52137;BME280;69622;49.570;10.986;2023-08-01T09:11:59;96992.69;;;16.78;100.00
52137;BME280;69622;49.570;10.986;2023-08-01T09:15:01;96986.44;;;16.79;100.00
52137;BME280;69622;49.570;10.986;2023-08-01T09:18:06;96991.38;;;16.53;100.00
52137;BME280;69622;49.570;10.986;2023-08-01T09:21:08;96983.06;;;16.85;100.00
52137;BME280;69622;49.570;10.986;2023-08-01T09:24:11;96986.69;;;16.84;100.00
52137;BME280;69622;49.570;10.986;2023-08-01T09:27:13;96995.31;;;16.78;100.00
52137;BME280;69622;49.570;10.986;2023-08-01T09:30:14;96997.59;;;16.66;100.00
52137;BME280;69622;49.570;10.986;2023-08-01T09:33:19;96995.47;;;16.91;100.00
52137;BME280;69622;49.570;10.986;2023-08-01T09:36:21;96990.44;;;16.75;100.00
52137;BME280;69622;49.570;10.986;2023-08-01T09:39:27;96989.44;;;16.76;100.00
52137;BME280;69622;49.570;10.986;2023-08-01T09:42:37;96990.25;;;16.98;100.00
52137;BME280;69622;49.570;10.986;2023-08-01T09:45:54;96991.31;;;17.03;100.00
52137;BME280;69622;49.570;10.986;2023-08-01T09:49:06;96979.75;;;16.98;100.00
52137;BME280;69622;49.570;10.986;2023-08-01T09:52:08;96979.00;;;17.04;100.00
52137;BME280;69622;49.570;10.986;2023-08-01T09:55:09;96960.25;;;17.35;100.00
52137;BME280;69622;49.570;10.986;2023-08-01T09:58:13;96978.28;;;17.38;100.00
52137;BME280;69622;49.570;10.986;2023-08-01T10:01:16;96979.56;;;17.21;100.00
52137;BME280;69622;49.570;10.986;2023-08-01T10:04:21;96974.31;;;16.99;100.00
52137;BME280;69622;49.570;10.986;2023-08-01T10:07:26;96961.59;;;17.24;100.00
52137;BME280;69622;49.570;10.986;2023-08-01T10:10:30;96974.06;;;17.44;100.00
52137;BME280;69622;49.570;10.986;2023-08-01T10:13:32;96972.22;;;17.38;100.00
52137;BME280;69622;49.570;10.986;2023-08-01T10:16:34;96980.13;;;17.44;100.00
52137;BME280;69622;49.570;10.986;2023-08-01T10:19:36;96972.19;;;17.10;100.00
52137;BME280;69622;49.570;10.986;2023-08-01T10:22:39;96972.75;;;17.33;100.00
52137;BME280;69622;49.570;10.986;2023-08-01T10:25:42;96981.00;;;17.23;100.00
52137;BME280;69622;49.570;10.986;2023-08-01T10:28:51;96975.69;;;17.45;100.00
52137;BME280;69622;49.570;10.986;2023-08-01T10:31:54;96977.19;;;17.54;100.00
52137;BME280;69622;49.570;10.986;2023-08-01T10:34:56;96972.16;;;17.31;100.00
52137;BME280;69622;49.570;10.986;2023-08-01T10:38:04;96975.03;;;17.36;100.00
52137;BME280;69622;49.570;10.986;2023-08-01T10:41:06;96978.91;;;17.40;100.00
52137;BME280;69622;49.570;10.986;2023-08-01T10:44:15;96967.69;;;17.59;100.00
52137;BME280;69622;49.570;10.986;2023-08-01T10:47:26;96967.81;;;17.73;100.00
52137;BME280;69622;49.570;10.986;2023-08-01T10:50:28;96966.41;;;17.77;100.00
52137;BME280;69622;49.570;10.986;2023-08-01T10:53:41;96973.31;;;17.78;100.00
52137;BME280;69622;49.570;10.986;2023-08-01T10:56:47;96960.97;;;17.78;100.00
52137;BME280;69622;49.570;10.986;2023-08-01T10:59:49;96964.66;;;17.84;100.00
52137;BME280;69622;49.570;10.986;2023-08-01T11:02:51;96964.13;;;18.02;100.00
52137;BME280;69622;49.570;10.986;2023-08-01T11:05:58;96963.31;;;18.01;100.00
52137;BME280;69622;49.570;10.986;2023-08-01T11:09:00;96963.94;;;18.03;100.00
52137;BME280;69622;49.570;10.986;2023-08-01T11:12:02;96965.16;;;18.07;100.00
52137;BME280;69622;49.570;10.986;2023-08-01T11:15:07;96975.13;;;18.18;100.00
52137;BME280;69622;49.570;10.986;2023-08-01T11:18:10;96985.47;;;18.20;100.00
52137;BME280;69622;49.570;10.986;2023-08-01T11:21:12;96986.38;;;18.47;100.00
52137;BME280;69622;49.570;10.986;2023-08-01T11:24:14;96982.75;;;18.54;100.00
52137;BME280;69622;49.570;10.986;2023-08-01T11:27:16;96981.69;;;18.42;100.00
52137;BME280;69622;49.570;10.986;2023-08-01T11:30:17;96983.31;;;18.43;100.00
52137;BME280;69622;49.570;10.986;2023-08-01T11:33:23;96985.47;;;18.26;100.00
52137;BME280;69622;49.570;10.986;2023-08-01T11:36:28;96980.34;;;18.12;100.00
52137;BME280;69622;49.570;10.986;2023-08-01T11:39:30;96995.25;;;17.98;100.00
52137;BME280;69622;49.570;10.986;2023-08-01T11:42:32;97032.00;;;17.63;100.00
52137;BME280;69622;49.570;10.986;2023-08-01T11:45:34;97032.84;;;17.36;100.00
52137;BME280;69622;49.570;10.986;2023-08-01T11:48:36;97025.56;;;16.74;100.00
52137;BME280;69622;49.570;10.986;2023-08-01T11:51:39;97042.09;;;16.89;100.00
52137;BME280;69622;49.570;10.986;2023-08-01T11:54:45;97036.84;;;17.11;100.00
52137;BME280;69622;49.570;10.986;2023-08-01T11:57:54;97041.28;;;17.10;100.00
52137;BME280;69622;49.570;10.986;2023-08-01T12:01:07;97031.50;;;17.04;100.00
52137;BME280;69622;49.570;10.986;2023-08-01T12:04:10;97035.53;;;17.21;100.00
52137;BME280;69622;49.570;10.986;2023-08-01T12:07:13;97030.81;;;17.38;100.00
52137;BME280;69622;49.570;10.986;2023-08-01T12:10:14;97028.72;;;17.55;100.00
52137;BME280;69622;49.570;10.986;2023-08-01T12:13:20;97029.09;;;17.73;100.00
52137;BME280;69622;49.570;10.986;2023-08-01T12:16:23;97021.69;;;18.24;100.00
52137;BME280;69622;49.570;10.986;2023-08-01T12:19:24;97012.44;;;18.96;100.00
52137;BME280;69622;49.570;10.986;2023-08-01T12:22:26;97011.59;;;18.89;100.00
52137;BME280;69622;49.570;10.986;2023-08-01T12:25:27;97017.13;;;19.14;100.00
52137;BME280;69622;49.570;10.986;2023-08-01T12:28:28;97007.00;;;19.18;100.00
52137;BME280;69622;49.570;10.986;2023-08-01T12:31:30;97005.00;;;19.59;100.00
52137;BME280;69622;49.570;10.986;2023-08-01T12:34:32;97004.09;;;20.05;100.00
52137;BME280;69622;49.570;10.986;2023-08-01T12:37:34;97002.41;;;20.24;100.00
52137;BME280;69622;49.570;10.986;2023-08-01T12:40:35;96999.94;;;20.36;100.00
52137;BME280;69622;49.570;10.986;2023-08-01T12:43:37;97005.75;;;20.57;100.00
52137;BME280;69622;49.570;10.986;2023-08-01T12:46:38;97008.03;;;20.41;100.00
52137;BME280;69622;49.570;10.986;2023-08-01T12:49:41;97007.41;;;21.21;100.00
52137;BME280;69622;49.570;10.986;2023-08-01T12:52:42;97012.53;;;21.16;100.00
52137;BME280;69622;49.570;10.986;2023-08-01T12:55:47;97009.44;;;20.88;100.00
52137;BME280;69622;49.570;10.986;2023-08-01T12:58:49;97000.34;;;21.15;100.00
52137;BME280;69622;49.570;10.986;2023-08-01T13:01:50;97002.69;;;21.23;100.00
52137;BME280;69622;49.570;10.986;2023-08-01T13:04:52;97003.50;;;20.99;100.00
52137;BME280;69622;49.570;10.986;2023-08-01T13:07:53;96998.63;;;20.00;100.00
52137;BME280;69622;49.570;10.986;2023-08-01T13:10:55;97004.78;;;19.48;100.00
52137;BME280;69622;49.570;10.986;2023-08-01T13:13:57;97013.06;;;19.71;100.00
52137;BME280;69622;49.570;10.986;2023-08-01T13:16:58;97009.25;;;20.45;100.00
52137;BME280;69622;49.570;10.986;2023-08-01T13:20:00;97006.69;;;20.25;100.00
52137;BME280;69622;49.570;10.986;2023-08-01T13:23:02;97007.91;;;20.74;100.00
52137;BME280;69622;49.570;10.986;2023-08-01T13:26:04;96999.56;;;21.40;98.97
52137;BME280;69622;49.570;10.986;2023-08-01T13:29:06;97000.72;;;22.30;92.25
52137;BME280;69622;49.570;10.986;2023-08-01T13:32:07;96992.03;;;22.05;91.68
52137;BME280;69622;49.570;10.986;2023-08-01T13:35:09;97000.13;;;21.67;90.13
52137;BME280;69622;49.570;10.986;2023-08-01T13:38:11;97013.72;;;20.89;92.77
52137;BME280;69622;49.570;10.986;2023-08-01T13:41:14;97032.00;;;20.46;100.00
52137;BME280;69622;49.570;10.986;2023-08-01T13:44:15;97039.13;;;20.32;100.00
52137;BME280;69622;49.570;10.986;2023-08-01T13:47:17;97052.97;;;20.14;100.00
52137;BME280;69622;49.570;10.986;2023-08-01T13:50:18;97064.00;;;19.78;100.00
52137;BME280;69622;49.570;10.986;2023-08-01T13:53:20;97066.03;;;19.76;100.00
52137;BME280;69622;49.570;10.986;2023-08-01T13:56:21;97070.69;;;19.54;100.00
52137;BME280;69622;49.570;10.986;2023-08-01T13:59:23;97072.91;;;19.51;100.00
52137;BME280;69622;49.570;10.986;2023-08-01T14:02:24;97068.81;;;19.35;100.00
52137;BME280;69622;49.570;10.986;2023-08-01T14:05:26;97083.03;;;19.34;100.00
52137;BME280;69622;49.570;10.986;2023-08-01T14:08:28;97075.38;;;19.59;100.00
52137;BME280;69622;49.570;10.986;2023-08-01T14:11:29;97074.84;;;20.54;100.00
52137;BME280;69622;49.570;10.986;2023-08-01T14:14:31;97063.09;;;21.27;97.49
52137;BME280;69622;49.570;10.986;2023-08-01T14:17:32;97062.88;;;21.28;100.00
52137;BME280;69622;49.570;10.986;2023-08-01T14:20:34;97075.00;;;21.04;99.44
52137;BME280;69622;49.570;10.986;2023-08-01T14:23:36;97070.88;;;21.15;97.21
52137;BME280;69622;49.570;10.986;2023-08-01T14:26:41;97070.91;;;21.46;93.95
52137;BME280;69622;49.570;10.986;2023-08-01T14:29:43;97064.09;;;21.32;89.00
52137;BME280;69622;49.570;10.986;2023-08-01T14:32:45;97079.00;;;20.75;89.63
52137;BME280;69622;49.570;10.986;2023-08-01T14:35:46;97077.72;;;20.91;93.59
52137;BME280;69622;49.570;10.986;2023-08-01T14:38:48;97074.09;;;21.80;91.74
52137;BME280;69622;49.570;10.986;2023-08-01T14:41:58;97080.19;;;22.05;80.19
52137;BME280;69622;49.570;10.986;2023-08-01T14:45:06;97075.88;;;22.11;79.11
52137;BME280;69622;49.570;10.986;2023-08-01T14:48:08;97069.47;;;22.19;80.06
52137;BME280;69622;49.570;10.986;2023-08-01T14:51:09;97068.97;;;22.65;77.14
52137;BME280;69622;49.570;10.986;2023-08-01T14:54:11;97076.09;;;22.64;80.34
52137;BME280;69622;49.570;10.986;2023-08-01T14:57:14;97085.31;;;22.25;77.65
52137;BME280;69622;49.570;10.986;2023-08-01T15:00:16;97077.81;;;22.59;80.42
52137;BME280;69622;49.570;10.986;2023-08-01T15:03:17;97076.38;;;22.20;83.15
52137;BME280;69622;49.570;10.986;2023-08-01T15:06:19;97074.28;;;22.47;79.18
52137;BME280;69622;49.570;10.986;2023-08-01T15:09:21;97077.22;;;22.57;81.18
52137;BME280;69622;49.570;10.986;2023-08-01T15:12:23;97077.13;;;22.27;79.28
52137;BME280;69622;49.570;10.986;2023-08-01T15:15:25;97078.75;;;22.03;77.53
52137;BME280;69622;49.570;10.986;2023-08-01T15:18:27;97089.50;;;22.33;77.16
52137;BME280;69622;49.570;10.986;2023-08-01T15:21:28;97079.91;;;22.14;80.24
52137;BME280;69622;49.570;10.986;2023-08-01T15:24:30;97075.44;;;21.89;84.70
52137;BME280;69622;49.570;10.986;2023-08-01T15:27:32;97092.56;;;22.11;82.33
52137;BME280;69622;49.570;10.986;2023-08-01T15:30:33;97084.41;;;22.13;84.69
52137;BME280;69622;49.570;10.986;2023-08-01T15:33:36;97094.72;;;21.71;84.49
52137;BME280;69622;49.570;10.986;2023-08-01T15:36:38;97108.22;;;21.32;83.54
52137;BME280;69622;49.570;10.986;2023-08-01T15:39:40;97097.38;;;21.02;87.99
52137;BME280;69622;49.570;10.986;2023-08-01T15:42:41;97106.00;;;21.22;89.47